sensor_id;sensor_type;location;lat;lon;timestamp;temperature;humidity
59857;DHT22;45733;52.668;6.860;2023-02-17T00:02:21;10.40;99.90
59857;DHT22;45733;52.668;6.860;2023-02-17T00:04:46;10.60;99.90
59857;DHT22;45733;52.668;6.860;2023-02-17T00:07:12;10.50;99.90
59857;DHT22;45733;52.668;6.860;2023-02-17T00:09:38;10.60;99.90
59857;DHT22;45733;52.668;6.860;2023-02-17T00:12:04;10.50;99.90
59857;DHT22;45733;52.668;6.860;2023-02-17T00:14:29;10.60;99.90
59857;DHT22;45733;52.668;6.860;2023-02-17T00:16:55;10.50;99.90
59857;DHT22;45733;52.668;6.860;2023-02-17T00:19:21;10.50;99.90
59857;DHT22;45733;52.668;6.860;2023-02-17T00:24:22;10.40;99.90
59857;DHT22;45733;52.668;6.860;2023-02-17T00:26:48;10.40;99.90
59857;DHT22;45733;52.668;6.860;2023-02-17T00:29:15;10.50;99.90
59857;DHT22;45733;52.668;6.860;2023-02-17T00:31:42;10.50;99.90
59857;DHT22;45733;52.668;6.860;2023-02-17T00:34:08;10.40;99.90
59857;DHT22;45733;52.668;6.860;2023-02-17T00:36:33;10.50;99.90
59857;DHT22;45733;52.668;6.860;2023-02-17T00:38:59;10.50;99.90
59857;DHT22;45733;52.668;6.860;2023-02-17T00:41:27;10.50;99.90
59857;DHT22;45733;52.668;6.860;2023-02-17T00:43:53;10.40;99.90
59857;DHT22;45733;52.668;6.860;2023-02-17T00:46:19;10.40;99.90
59857;DHT22;45733;52.668;6.860;2023-02-17T00:48:46;10.60;99.90
59857;DHT22;45733;52.668;6.860;2023-02-17T00:51:12;10.70;99.90
59857;DHT22;45733;52.668;6.860;2023-02-17T00:53:37;10.40;99.90
59857;DHT22;45733;52.668;6.860;2023-02-17T00:56:04;10.40;99.90
59857;DHT22;45733;52.668;6.860;2023-02-17T00:58:29;10.40;99.90
59857;DHT22;45733;52.668;6.860;2023-02-17T01:00:56;10.70;99.90
59857;DHT22;45733;52.668;6.860;2023-02-17T01:03:23;10.60;99.90
59857;DHT22;45733;52.668;6.860;2023-02-17T01:05:49;10.50;99.90
59857;DHT22;45733;52.668;6.860;2023-02-17T01:08:16;10.70;99.90
59857;DHT22;45733;52.668;6.860;2023-02-17T01:10:44;10.60;99.90
59857;DHT22;45733;52.668;6.860;2023-02-17T01:13:11;10.50;99.90
59857;DHT22;45733;52.668;6.860;2023-02-17T01:15:39;10.70;99.90
59857;DHT22;45733;52.668;6.860;2023-02-17T01:18:04;10.50;99.90
59857;DHT22;45733;52.668;6.860;2023-02-17T01:20:33;10.50;99.90
59857;DHT22;45733;52.668;6.860;2023-02-17T01:22:59;10.60;99.90
59857;DHT22;45733;52.668;6.860;2023-02-17T01:25:25;10.40;99.90
59857;DHT22;45733;52.668;6.860;2023-02-17T01:27:51;10.60;99.90
59857;DHT22;45733;52.668;6.860;2023-02-17T01:30:16;10.60;99.90
59857;DHT22;45733;52.668;6.860;2023-02-17T01:32:42;10.40;99.90
59857;DHT22;45733;52.668;6.860;2023-02-17T01:35:08;10.40;99.90
59857;DHT22;45733;52.668;6.860;2023-02-17T01:37:33;10.60;99.90
59857;DHT22;45733;52.668;6.860;2023-02-17T01:39:59;10.70;99.90
59857;DHT22;45733;52.668;6.860;2023-02-17T01:42:25;10.70;99.90
59857;DHT22;45733;52.668;6.860;2023-02-17T01:47:53;10.40;99.90
59857;DHT22;45733;52.668;6.860;2023-02-17T01:50:25;10.60;99.90
59857;DHT22;45733;52.668;6.860;2023-02-17T01:52:53;10.40;99.90
59857;DHT22;45733;52.668;6.860;2023-02-17T01:55:21;10.50;99.90
59857;DHT22;45733;52.668;6.860;2023-02-17T01:57:49;10.40;99.90
59857;DHT22;45733;52.668;6.860;2023-02-17T02:00:17;10.60;99.90
59857;DHT22;45733;52.668;6.860;2023-02-17T02:02:45;10.50;99.90
59857;DHT22;45733;52.668;6.860;2023-02-17T02:05:13;10.50;99.90
59857;DHT22;45733;52.668;6.860;2023-02-17T02:07:41;10.40;99.90
59857;DHT22;45733;52.668;6.860;2023-02-17T02:10:08;10.60;99.90
59857;DHT22;45733;52.668;6.860;2023-02-17T02:12:36;10.50;99.90
59857;DHT22;45733;52.668;6.860;2023-02-17T02:20:36;10.50;99.90
59857;DHT22;45733;52.668;6.860;2023-02-17T02:25:46;10.50;99.90
59857;DHT22;45733;52.668;6.860;2023-02-17T02:33:42;10.60;99.90
59857;DHT22;45733;52.668;6.860;2023-02-17T02:36:33;10.40;99.90
59857;DHT22;45733;52.668;6.860;2023-02-17T02:39:15;10.70;99.90
59857;DHT22;45733;52.668;6.860;2023-02-17T02:41:48;10.60;99.90
59857;DHT22;45733;52.668;6.860;2023-02-17T02:44:17;10.70;99.90
59857;DHT22;45733;52.668;6.860;2023-02-17T02:46:43;10.50;99.90
59857;DHT22;45733;52.668;6.860;2023-02-17T02:49:10;10.60;99.90
59857;DHT22;45733;52.668;6.860;2023-02-17T02:57:20;10.50;99.90
59857;DHT22;45733;52.668;6.860;2023-02-17T03:07:58;10.70;99.90
59857;DHT22;45733;52.668;6.860;2023-02-17T03:10:25;10.50;99.90
59857;DHT22;45733;52.668;6.860;2023-02-17T03:12:51;10.70;99.90
59857;DHT22;45733;52.668;6.860;2023-02-17T03:15:34;10.70;99.90
59857;DHT22;45733;52.668;6.860;2023-02-17T03:18:01;10.60;99.90
59857;DHT22;45733;52.668;6.860;2023-02-17T03:20:29;10.60;99.90
59857;DHT22;45733;52.668;6.860;2023-02-17T03:22:57;10.50;99.90
59857;DHT22;45733;52.668;6.860;2023-02-17T03:25:23;10.60;99.90
59857;DHT22;45733;52.668;6.860;2023-02-17T03:27:48;10.40;99.90
59857;DHT22;45733;52.668;6.860;2023-02-17T03:30:14;10.50;99.90
59857;DHT22;45733;52.668;6.860;2023-02-17T03:32:40;10.70;99.90
59857;DHT22;45733;52.668;6.860;2023-02-17T03:35:07;10.50;99.90
59857;DHT22;45733;52.668;6.860;2023-02-17T03:37:33;10.70;99.90
59857;DHT22;45733;52.668;6.860;2023-02-17T03:39:59;10.70;99.90
59857;DHT22;45733;52.668;6.860;2023-02-17T03:42:24;10.50;99.90
59857;DHT22;45733;52.668;6.860;2023-02-17T03:44:50;10.60;99.90
59857;DHT22;45733;52.668;6.860;2023-02-17T03:47:16;10.50;99.90
59857;DHT22;45733;52.668;6.860;2023-02-17T03:49:41;10.60;99.90
59857;DHT22;45733;52.668;6.860;2023-02-17T03:52:07;10.50;99.90
59857;DHT22;45733;52.668;6.860;2023-02-17T03:54:34;10.60;99.90
59857;DHT22;45733;52.668;6.860;2023-02-17T03:57:00;10.40;99.90
59857;DHT22;45733;52.668;6.860;2023-02-17T03:59:26;10.40;99.90
59857;DHT22;45733;52.668;6.860;2023-02-17T04:01:52;10.50;99.90
59857;DHT22;45733;52.668;6.860;2023-02-17T04:04:18;10.40;99.90
59857;DHT22;45733;52.668;6.860;2023-02-17T04:06:44;10.50;99.90
59857;DHT22;45733;52.668;6.860;2023-02-17T04:09:09;10.40;99.90
59857;DHT22;45733;52.668;6.860;2023-02-17T04:11:35;10.50;99.90
59857;DHT22;45733;52.668;6.860;2023-02-17T04:14:01;10.40;99.90
59857;DHT22;45733;52.668;6.860;2023-02-17T04:16:26;10.40;99.90
59857;DHT22;45733;52.668;6.860;2023-02-17T04:18:52;10.40;99.90
59857;DHT22;45733;52.668;6.860;2023-02-17T04:21:18;10.30;99.90
59857;DHT22;45733;52.668;6.860;2023-02-17T04:23:43;10.30;99.90
59857;DHT22;45733;52.668;6.860;2023-02-17T04:26:09;10.30;99.90
59857;DHT22;45733;52.668;6.860;2023-02-17T04:28:39;10.40;99.90
59857;DHT22;45733;52.668;6.860;2023-02-17T04:31:05;10.40;99.90
59857;DHT22;45733;52.668;6.860;2023-02-17T04:33:31;10.40;99.90
59857;DHT22;45733;52.668;6.860;2023-02-17T04:35:57;10.30;99.90
59857;DHT22;45733;52.668;6.860;2023-02-17T04:38:31;10.30;99.90
59857;DHT22;45733;52.668;6.860;2023-02-17T04:40:58;10.20;99.90
59857;DHT22;45733;52.668;6.860;2023-02-17T04:43:26;10.20;99.90
59857;DHT22;45733;52.668;6.860;2023-02-17T04:45:52;10.10;99.90
59857;DHT22;45733;52.668;6.860;2023-02-17T04:48:18;10.10;99.90
59857;DHT22;45733;52.668;6.860;2023-02-17T04:50:45;10.30;99.90
59857;DHT22;45733;52.668;6.860;2023-02-17T04:53:11;10.20;99.90
59857;DHT22;45733;52.668;6.860;2023-02-17T04:55:39;10.20;99.90
59857;DHT22;45733;52.668;6.860;2023-02-17T04:58:04;10.10;99.90
59857;DHT22;45733;52.668;6.860;2023-02-17T05:00:30;10.10;99.90
59857;DHT22;45733;52.668;6.860;2023-02-17T05:02:56;10.10;99.90
59857;DHT22;45733;52.668;6.860;2023-02-17T05:05:22;10.10;99.90
59857;DHT22;45733;52.668;6.860;2023-02-17T05:07:48;10.10;99.90
59857;DHT22;45733;52.668;6.860;2023-02-17T05:10:14;10.10;99.90
59857;DHT22;45733;52.668;6.860;2023-02-17T05:12:41;10.10;99.90
59857;DHT22;45733;52.668;6.860;2023-02-17T05:15:07;10.10;99.90
59857;DHT22;45733;52.668;6.860;2023-02-17T05:17:33;10.00;99.90
59857;DHT22;45733;52.668;6.860;2023-02-17T05:19:59;9.90;99.90
59857;DHT22;45733;52.668;6.860;2023-02-17T05:22:25;10.00;99.90
59857;DHT22;45733;52.668;6.860;2023-02-17T05:24:54;10.00;99.90
59857;DHT22;45733;52.668;6.860;2023-02-17T05:27:20;10.00;99.90
59857;DHT22;45733;52.668;6.860;2023-02-17T05:29:45;9.90;99.90
59857;DHT22;45733;52.668;6.860;2023-02-17T05:32:11;10.00;99.90
59857;DHT22;45733;52.668;6.860;2023-02-17T05:34:38;10.10;99.90
59857;DHT22;45733;52.668;6.860;2023-02-17T05:37:03;9.90;99.90
59857;DHT22;45733;52.668;6.860;2023-02-17T05:39:29;10.10;99.90
59857;DHT22;45733;52.668;6.860;2023-02-17T05:41:55;10.00;99.90
59857;DHT22;45733;52.668;6.860;2023-02-17T05:44:21;10.10;99.90
59857;DHT22;45733;52.668;6.860;2023-02-17T05:46:46;10.10;99.90
59857;DHT22;45733;52.668;6.860;2023-02-17T05:49:12;10.10;99.90
59857;DHT22;45733;52.668;6.860;2023-02-17T05:51:38;10.00;99.90
59857;DHT22;45733;52.668;6.860;2023-02-17T05:54:04;10.20;99.90
59857;DHT22;45733;52.668;6.860;2023-02-17T05:56:30;10.20;99.90
59857;DHT22;45733;52.668;6.860;2023-02-17T05:58:58;10.20;99.90
59857;DHT22;45733;52.668;6.860;2023-02-17T06:01:25;10.00;99.90
59857;DHT22;45733;52.668;6.860;2023-02-17T06:03:51;10.00;99.90
59857;DHT22;45733;52.668;6.860;2023-02-17T06:06:16;10.10;99.90
59857;DHT22;45733;52.668;6.860;2023-02-17T06:08:42;10.20;99.90
59857;DHT22;45733;52.668;6.860;2023-02-17T06:11:08;10.20;99.90
59857;DHT22;45733;52.668;6.860;2023-02-17T06:13:34;10.30;99.90
59857;DHT22;45733;52.668;6.860;2023-02-17T06:16:00;10.20;99.90
59857;DHT22;45733;52.668;6.860;2023-02-17T06:18:26;10.10;99.90
59857;DHT22;45733;52.668;6.860;2023-02-17T06:20:54;10.10;99.90
59857;DHT22;45733;52.668;6.860;2023-02-17T06:23:22;10.10;99.90
59857;DHT22;45733;52.668;6.860;2023-02-17T06:25:47;10.20;99.90
59857;DHT22;45733;52.668;6.860;2023-02-17T06:28:13;10.20;99.90
59857;DHT22;45733;52.668;6.860;2023-02-17T06:30:39;10.10;99.90
59857;DHT22;45733;52.668;6.860;2023-02-17T06:33:04;10.30;99.90
59857;DHT22;45733;52.668;6.860;2023-02-17T06:35:30;10.40;99.90
59857;DHT22;45733;52.668;6.860;2023-02-17T06:37:56;10.40;99.90
59857;DHT22;45733;52.668;6.860;2023-02-17T06:40:22;10.20;99.90
59857;DHT22;45733;52.668;6.860;2023-02-17T06:42:48;10.30;99.90
59857;DHT22;45733;52.668;6.860;2023-02-17T06:45:13;10.50;99.90
59857;DHT22;45733;52.668;6.860;2023-02-17T06:47:39;10.30;99.90
59857;DHT22;45733;52.668;6.860;2023-02-17T06:50:05;10.30;99.90
59857;DHT22;45733;52.668;6.860;2023-02-17T06:52:31;10.50;99.90
59857;DHT22;45733;52.668;6.860;2023-02-17T06:54:57;10.30;99.90
59857;DHT22;45733;52.668;6.860;2023-02-17T06:57:23;10.60;99.90
59857;DHT22;45733;52.668;6.860;2023-02-17T06:59:48;10.50;99.90
59857;DHT22;45733;52.668;6.860;2023-02-17T07:02:14;10.60;99.90
59857;DHT22;45733;52.668;6.860;2023-02-17T07:04:40;10.40;99.90
59857;DHT22;45733;52.668;6.860;2023-02-17T07:07:07;10.60;99.90
59857;DHT22;45733;52.668;6.860;2023-02-17T07:09:33;10.50;99.90
59857;DHT22;45733;52.668;6.860;2023-02-17T07:11:59;10.60;99.90
59857;DHT22;45733;52.668;6.860;2023-02-17T07:14:26;10.50;99.90
59857;DHT22;45733;52.668;6.860;2023-02-17T07:16:52;10.50;99.90
59857;DHT22;45733;52.668;6.860;2023-02-17T07:19:18;10.50;99.90
59857;DHT22;45733;52.668;6.860;2023-02-17T07:21:44;10.50;99.90
59857;DHT22;45733;52.668;6.860;2023-02-17T07:24:10;10.70;99.90
59857;DHT22;45733;52.668;6.860;2023-02-17T07:26:37;10.70;99.90
59857;DHT22;45733;52.668;6.860;2023-02-17T07:29:03;10.50;99.90
59857;DHT22;45733;52.668;6.860;2023-02-17T07:31:30;10.50;99.90
59857;DHT22;45733;52.668;6.860;2023-02-17T07:33:56;10.60;99.90
59857;DHT22;45733;52.668;6.860;2023-02-17T07:36:22;10.70;99.90
59857;DHT22;45733;52.668;6.860;2023-02-17T07:38:48;10.70;99.90
59857;DHT22;45733;52.668;6.860;2023-02-17T07:41:15;10.60;99.90
59857;DHT22;45733;52.668;6.860;2023-02-17T07:43:42;10.60;99.90
59857;DHT22;45733;52.668;6.860;2023-02-17T07:46:08;10.70;99.90
59857;DHT22;45733;52.668;6.860;2023-02-17T07:48:34;10.90;99.90
59857;DHT22;45733;52.668;6.860;2023-02-17T07:51:20;10.80;99.90
59857;DHT22;45733;52.668;6.860;2023-02-17T07:53:47;10.70;99.90
59857;DHT22;45733;52.668;6.860;2023-02-17T07:56:14;10.80;99.90
59857;DHT22;45733;52.668;6.860;2023-02-17T07:58:43;10.80;99.90
59857;DHT22;45733;52.668;6.860;2023-02-17T08:01:12;10.70;99.90
59857;DHT22;45733;52.668;6.860;2023-02-17T08:03:38;10.70;99.90
59857;DHT22;45733;52.668;6.860;2023-02-17T08:06:09;10.90;99.90
59857;DHT22;45733;52.668;6.860;2023-02-17T08:08:35;10.70;99.90
59857;DHT22;45733;52.668;6.860;2023-02-17T08:11:19;10.80;99.90
59857;DHT22;45733;52.668;6.860;2023-02-17T08:14:03;10.90;99.90
59857;DHT22;45733;52.668;6.860;2023-02-17T08:16:29;10.80;99.90
59857;DHT22;45733;52.668;6.860;2023-02-17T08:18:55;10.80;99.90
59857;DHT22;45733;52.668;6.860;2023-02-17T08:21:25;10.80;99.90
59857;DHT22;45733;52.668;6.860;2023-02-17T08:23:54;11.00;99.90
59857;DHT22;45733;52.668;6.860;2023-02-17T08:26:20;11.00;99.90
59857;DHT22;45733;52.668;6.860;2023-02-17T08:28:46;10.90;99.90
59857;DHT22;45733;52.668;6.860;2023-02-17T08:31:19;10.80;99.90
59857;DHT22;45733;52.668;6.860;2023-02-17T08:33:45;11.00;99.90
59857;DHT22;45733;52.668;6.860;2023-02-17T08:36:11;10.80;99.90
59857;DHT22;45733;52.668;6.860;2023-02-17T08:38:37;11.00;99.90
59857;DHT22;45733;52.668;6.860;2023-02-17T08:41:15;11.10;99.90
59857;DHT22;45733;52.668;6.860;2023-02-17T08:43:41;11.10;99.90
59857;DHT22;45733;52.668;6.860;2023-02-17T08:46:09;11.00;99.90
59857;DHT22;45733;52.668;6.860;2023-02-17T08:48:35;11.00;99.90
59857;DHT22;45733;52.668;6.860;2023-02-17T08:51:02;11.00;99.90
59857;DHT22;45733;52.668;6.860;2023-02-17T08:53:28;11.10;99.90
59857;DHT22;45733;52.668;6.860;2023-02-17T08:55:54;11.20;99.90
59857;DHT22;45733;52.668;6.860;2023-02-17T08:58:19;11.20;99.90
59857;DHT22;45733;52.668;6.860;2023-02-17T09:00:45;11.20;99.90
59857;DHT22;45733;52.668;6.860;2023-02-17T09:03:11;11.10;99.90
59857;DHT22;45733;52.668;6.860;2023-02-17T09:05:36;11.30;99.90
59857;DHT22;45733;52.668;6.860;2023-02-17T09:08:05;11.30;99.90
59857;DHT22;45733;52.668;6.860;2023-02-17T09:10:31;11.30;99.90
59857;DHT22;45733;52.668;6.860;2023-02-17T09:12:57;11.40;99.90
59857;DHT22;45733;52.668;6.860;2023-02-17T09:15:23;11.50;99.90
59857;DHT22;45733;52.668;6.860;2023-02-17T09:17:49;11.40;99.90
59857;DHT22;45733;52.668;6.860;2023-02-17T09:20:14;11.40;99.90
59857;DHT22;45733;52.668;6.860;2023-02-17T09:22:40;11.50;99.90
59857;DHT22;45733;52.668;6.860;2023-02-17T09:25:06;11.50;99.90
59857;DHT22;45733;52.668;6.860;2023-02-17T09:27:35;11.60;99.90
59857;DHT22;45733;52.668;6.860;2023-02-17T09:30:07;11.60;99.90
59857;DHT22;45733;52.668;6.860;2023-02-17T09:32:35;11.80;99.90
59857;DHT22;45733;52.668;6.860;2023-02-17T09:35:01;11.70;99.90
59857;DHT22;45733;52.668;6.860;2023-02-17T09:37:30;11.70;99.90
59857;DHT22;45733;52.668;6.860;2023-02-17T09:39:56;11.70;99.90
59857;DHT22;45733;52.668;6.860;2023-02-17T09:42:24;11.80;99.90
59857;DHT22;45733;52.668;6.860;2023-02-17T09:45:00;11.90;99.90
59857;DHT22;45733;52.668;6.860;2023-02-17T09:47:48;12.00;99.90
59857;DHT22;45733;52.668;6.860;2023-02-17T09:50:18;12.00;99.90
59857;DHT22;45733;52.668;6.860;2023-02-17T09:52:46;12.00;99.90
59857;DHT22;45733;52.668;6.860;2023-02-17T09:55:27;12.00;99.90
59857;DHT22;45733;52.668;6.860;2023-02-17T10:00:33;12.10;99.90
59857;DHT22;45733;52.668;6.860;2023-02-17T10:03:19;12.20;99.90
59857;DHT22;45733;52.668;6.860;2023-02-17T10:11:13;12.30;99.90
59857;DHT22;45733;52.668;6.860;2023-02-17T10:13:41;12.20;99.90
59857;DHT22;45733;52.668;6.860;2023-02-17T10:16:16;12.30;99.90
59857;DHT22;45733;52.668;6.860;2023-02-17T10:18:49;12.20;99.90
59857;DHT22;45733;52.668;6.860;2023-02-17T10:21:19;12.20;99.90
59857;DHT22;45733;52.668;6.860;2023-02-17T10:23:48;12.30;99.90
59857;DHT22;45733;52.668;6.860;2023-02-17T10:26:43;12.30;99.90
59857;DHT22;45733;52.668;6.860;2023-02-17T10:29:13;12.30;99.90
59857;DHT22;45733;52.668;6.860;2023-02-17T10:32:27;12.30;99.90
59857;DHT22;45733;52.668;6.860;2023-02-17T10:40:26;12.20;99.90
59857;DHT22;45733;52.668;6.860;2023-02-17T10:42:59;12.20;99.90
59857;DHT22;45733;52.668;6.860;2023-02-17T10:45:36;12.20;99.90
59857;DHT22;45733;52.668;6.860;2023-02-17T10:48:06;12.20;99.90
59857;DHT22;45733;52.668;6.860;2023-02-17T10:50:35;12.20;99.90
59857;DHT22;45733;52.668;6.860;2023-02-17T10:53:14;12.20;99.90
59857;DHT22;45733;52.668;6.860;2023-02-17T11:01:11;12.10;99.90
59857;DHT22;45733;52.668;6.860;2023-02-17T11:03:37;12.20;99.90
59857;DHT22;45733;52.668;6.860;2023-02-17T11:06:25;12.20;99.90
59857;DHT22;45733;52.668;6.860;2023-02-17T11:09:03;12.20;99.90
59857;DHT22;45733;52.668;6.860;2023-02-17T11:11:33;12.20;99.90
59857;DHT22;45733;52.668;6.860;2023-02-17T11:14:23;12.10;99.90
59857;DHT22;45733;52.668;6.860;2023-02-17T11:16:59;12.20;99.90
59857;DHT22;45733;52.668;6.860;2023-02-17T11:19:32;12.20;99.90
59857;DHT22;45733;52.668;6.860;2023-02-17T11:21:59;12.20;99.90
59857;DHT22;45733;52.668;6.860;2023-02-17T11:24:27;12.20;99.90
59857;DHT22;45733;52.668;6.860;2023-02-17T11:26:58;12.20;99.90
59857;DHT22;45733;52.668;6.860;2023-02-17T11:29:25;12.20;99.90
59857;DHT22;45733;52.668;6.860;2023-02-17T11:31:59;12.20;99.90
59857;DHT22;45733;52.668;6.860;2023-02-17T11:34:28;12.20;99.90
59857;DHT22;45733;52.668;6.860;2023-02-17T11:37:00;12.20;99.90
59857;DHT22;45733;52.668;6.860;2023-02-17T11:39:27;12.20;99.90
59857;DHT22;45733;52.668;6.860;2023-02-17T11:41:53;12.20;99.90
59857;DHT22;45733;52.668;6.860;2023-02-17T11:44:28;12.20;99.90
59857;DHT22;45733;52.668;6.860;2023-02-17T11:46:56;12.10;99.90
59857;DHT22;45733;52.668;6.860;2023-02-17T11:49:45;12.20;99.90
59857;DHT22;45733;52.668;6.860;2023-02-17T11:58:16;12.20;99.90
59857;DHT22;45733;52.668;6.860;2023-02-17T12:00:54;12.20;99.90
59857;DHT22;45733;52.668;6.860;2023-02-17T12:06:38;12.20;99.90
59857;DHT22;45733;52.668;6.860;2023-02-17T12:09:19;12.20;99.90
59857;DHT22;45733;52.668;6.860;2023-02-17T12:22:53;12.20;99.90
59857;DHT22;45733;52.668;6.860;2023-02-17T12:25:32;12.20;99.90
59857;DHT22;45733;52.668;6.860;2023-02-17T12:31:26;12.20;99.90
59857;DHT22;45733;52.668;6.860;2023-02-17T12:33:58;12.20;99.90
59857;DHT22;45733;52.668;6.860;2023-02-17T12:36:37;12.10;99.90
59857;DHT22;45733;52.668;6.860;2023-02-17T12:39:24;12.20;99.90
59857;DHT22;45733;52.668;6.860;2023-02-17T12:44:45;12.20;99.90
59857;DHT22;45733;52.668;6.860;2023-02-17T12:47:16;12.20;99.90
59857;DHT22;45733;52.668;6.860;2023-02-17T12:50:03;12.20;99.90
59857;DHT22;45733;52.668;6.860;2023-02-17T12:52:36;12.20;99.90
59857;DHT22;45733;52.668;6.860;2023-02-17T12:55:13;12.20;99.90
59857;DHT22;45733;52.668;6.860;2023-02-17T13:00:14;12.30;99.90
59857;DHT22;45733;52.668;6.860;2023-02-17T13:02:42;12.30;99.90
59857;DHT22;45733;52.668;6.860;2023-02-17T13:05:57;12.30;99.90
59857;DHT22;45733;52.668;6.860;2023-02-17T13:08:17;12.40;99.90
59857;DHT22;45733;52.668;6.860;2023-02-17T13:10:45;12.40;99.90
59857;DHT22;45733;52.668;6.860;2023-02-17T13:13:27;12.50;99.90
59857;DHT22;45733;52.668;6.860;2023-02-17T13:18:40;12.50;99.90
59857;DHT22;45733;52.668;6.860;2023-02-17T13:26:55;12.50;99.90
59857;DHT22;45733;52.668;6.860;2023-02-17T13:31:57;12.40;99.90
59857;DHT22;45733;52.668;6.860;2023-02-17T13:34:32;12.40;99.90
59857;DHT22;45733;52.668;6.860;2023-02-17T13:37:01;12.40;99.90
59857;DHT22;45733;52.668;6.860;2023-02-17T13:41:57;12.40;99.90
59857;DHT22;45733;52.668;6.860;2023-02-17T13:44:38;12.50;99.90
59857;DHT22;45733;52.668;6.860;2023-02-17T13:50:45;12.50;99.90
59857;DHT22;45733;52.668;6.860;2023-02-17T13:53:31;12.50;99.90
59857;DHT22;45733;52.668;6.860;2023-02-17T13:56:00;12.60;99.90
59857;DHT22;45733;52.668;6.860;2023-02-17T13:58:37;12.60;99.90
59857;DHT22;45733;52.668;6.860;2023-02-17T14:01:14;12.60;99.90
59857;DHT22;45733;52.668;6.860;2023-02-17T14:03:44;12.50;99.90
59857;DHT22;45733;52.668;6.860;2023-02-17T14:08:56;12.60;99.90
59857;DHT22;45733;52.668;6.860;2023-02-17T14:11:27;12.60;99.90
59857;DHT22;45733;52.668;6.860;2023-02-17T14:13:55;12.60;99.90
59857;DHT22;45733;52.668;6.860;2023-02-17T14:16:32;12.60;99.90
59857;DHT22;45733;52.668;6.860;2023-02-17T14:19:05;12.60;99.90
59857;DHT22;45733;52.668;6.860;2023-02-17T14:21:33;12.60;99.90
59857;DHT22;45733;52.668;6.860;2023-02-17T14:23:59;12.60;99.90
59857;DHT22;45733;52.668;6.860;2023-02-17T14:26:26;12.60;99.90
59857;DHT22;45733;52.668;6.860;2023-02-17T14:28:57;12.60;99.90
59857;DHT22;45733;52.668;6.860;2023-02-17T14:31:24;12.60;99.90
59857;DHT22;45733;52.668;6.860;2023-02-17T14:33:58;12.60;99.90
59857;DHT22;45733;52.668;6.860;2023-02-17T14:36:36;12.60;99.90
59857;DHT22;45733;52.668;6.860;2023-02-17T14:39:05;12.60;99.90
59857;DHT22;45733;52.668;6.860;2023-02-17T14:41:31;12.60;99.90
59857;DHT22;45733;52.668;6.860;2023-02-17T14:43:57;12.60;99.90
59857;DHT22;45733;52.668;6.860;2023-02-17T14:46:23;12.60;99.90
59857;DHT22;45733;52.668;6.860;2023-02-17T14:48:49;12.60;99.90
59857;DHT22;45733;52.668;6.860;2023-02-17T14:51:18;12.70;99.90
59857;DHT22;45733;52.668;6.860;2023-02-17T14:53:47;12.60;99.90
59857;DHT22;45733;52.668;6.860;2023-02-17T14:56:35;12.70;99.90
59857;DHT22;45733;52.668;6.860;2023-02-17T14:59:03;12.70;99.90
59857;DHT22;45733;52.668;6.860;2023-02-17T15:01:29;12.70;99.90
59857;DHT22;45733;52.668;6.860;2023-02-17T15:03:55;12.80;99.90
59857;DHT22;45733;52.668;6.860;2023-02-17T15:06:26;12.80;99.90
59857;DHT22;45733;52.668;6.860;2023-02-17T15:08:54;12.80;99.90
59857;DHT22;45733;52.668;6.860;2023-02-17T15:11:26;12.80;99.90
59857;DHT22;45733;52.668;6.860;2023-02-17T15:13:56;12.70;99.90
59857;DHT22;45733;52.668;6.860;2023-02-17T15:16:22;12.80;99.90
59857;DHT22;45733;52.668;6.860;2023-02-17T15:18:47;12.70;99.90
59857;DHT22;45733;52.668;6.860;2023-02-17T15:23:46;12.70;99.90
59857;DHT22;45733;52.668;6.860;2023-02-17T15:26:12;12.70;99.90
59857;DHT22;45733;52.668;6.860;2023-02-17T15:28:38;12.70;99.90
59857;DHT22;45733;52.668;6.860;2023-02-17T15:31:03;12.70;99.90
59857;DHT22;45733;52.668;6.860;2023-02-17T15:33:29;12.70;99.90
59857;DHT22;45733;52.668;6.860;2023-02-17T15:35:55;12.70;99.90
59857;DHT22;45733;52.668;6.860;2023-02-17T15:38:22;12.60;99.90
59857;DHT22;45733;52.668;6.860;2023-02-17T15:40:48;12.60;99.90
59857;DHT22;45733;52.668;6.860;2023-02-17T15:43:19;12.60;99.90
59857;DHT22;45733;52.668;6.860;2023-02-17T15:45:45;12.60;99.90
59857;DHT22;45733;52.668;6.860;2023-02-17T15:50:43;12.50;99.90
59857;DHT22;45733;52.668;6.860;2023-02-17T15:53:08;12.40;99.90
59857;DHT22;45733;52.668;6.860;2023-02-17T15:55:34;12.40;99.90
59857;DHT22;45733;52.668;6.860;2023-02-17T15:58:02;12.40;99.90
59857;DHT22;45733;52.668;6.860;2023-02-17T16:00:34;12.30;99.90
59857;DHT22;45733;52.668;6.860;2023-02-17T16:03:00;12.20;99.90
59857;DHT22;45733;52.668;6.860;2023-02-17T16:05:27;12.10;99.90
59857;DHT22;45733;52.668;6.860;2023-02-17T16:07:53;12.10;99.90
59857;DHT22;45733;52.668;6.860;2023-02-17T16:10:22;12.10;99.90
59857;DHT22;45733;52.668;6.860;2023-02-17T16:12:49;12.00;99.90
59857;DHT22;45733;52.668;6.860;2023-02-17T16:15:20;12.00;99.90
59857;DHT22;45733;52.668;6.860;2023-02-17T16:17:47;12.00;99.90
59857;DHT22;45733;52.668;6.860;2023-02-17T16:20:26;12.00;99.90
59857;DHT22;45733;52.668;6.860;2023-02-17T16:22:52;12.00;99.90
59857;DHT22;45733;52.668;6.860;2023-02-17T16:25:19;11.90;99.90
59857;DHT22;45733;52.668;6.860;2023-02-17T16:27:47;11.90;99.90
59857;DHT22;45733;52.668;6.860;2023-02-17T16:30:28;11.90;99.90
59857;DHT22;45733;52.668;6.860;2023-02-17T16:32:54;11.90;99.90
59857;DHT22;45733;52.668;6.860;2023-02-17T16:35:22;11.90;99.90
59857;DHT22;45733;52.668;6.860;2023-02-17T16:38:01;11.80;99.90
59857;DHT22;45733;52.668;6.860;2023-02-17T16:40:29;11.80;99.90
59857;DHT22;45733;52.668;6.860;2023-02-17T16:42:55;11.80;99.90
59857;DHT22;45733;52.668;6.860;2023-02-17T16:45:26;11.80;99.90
59857;DHT22;45733;52.668;6.860;2023-02-17T16:47:57;11.70;99.90
59857;DHT22;45733;52.668;6.860;2023-02-17T16:50:27;11.70;99.90
59857;DHT22;45733;52.668;6.860;2023-02-17T16:52:55;11.60;99.90
59857;DHT22;45733;52.668;6.860;2023-02-17T16:55:23;11.50;99.90
59857;DHT22;45733;52.668;6.860;2023-02-17T16:57:49;11.50;99.90
59857;DHT22;45733;52.668;6.860;2023-02-17T17:00:18;11.40;99.90
59857;DHT22;45733;52.668;6.860;2023-02-17T17:02:45;11.40;99.90
59857;DHT22;45733;52.668;6.860;2023-02-17T17:05:11;11.40;99.90
59857;DHT22;45733;52.668;6.860;2023-02-17T17:07:39;11.30;99.90
59857;DHT22;45733;52.668;6.860;2023-02-17T17:10:16;11.30;99.90
59857;DHT22;45733;52.668;6.860;2023-02-17T17:12:43;11.30;99.90
59857;DHT22;45733;52.668;6.860;2023-02-17T17:15:09;11.20;99.90
59857;DHT22;45733;52.668;6.860;2023-02-17T17:17:41;11.20;99.90
59857;DHT22;45733;52.668;6.860;2023-02-17T17:20:13;11.10;99.90
59857;DHT22;45733;52.668;6.860;2023-02-17T17:22:40;11.00;99.90
59857;DHT22;45733;52.668;6.860;2023-02-17T17:25:05;11.00;99.90
59857;DHT22;45733;52.668;6.860;2023-02-17T17:27:31;11.00;99.90